Time;durP1;ratioP1;P1;durP2;ratioP2;P2;SDS_P1;SDS_P2;PMS_P1;PMS_P2;Temp;Humidity;BMP_temperature;BMP_pressure;BME280_temperature;BME280_humidity;BME280_pressure;Samples;Min_cycle;Max_cycle;Signal;HPM_P1;HPM_P2
2023/09/24 00:00:58;;;;;;;11.55;6.25;;;;;;;23.30;68.96;99830.88;5057147;28;20029;-85
2023/09/24 00:03:24;;;;;;;14.27;6.85;;;;;;;23.43;68.31;99821.03;5050718;28;20029;-85
2023/09/24 00:05:53;;;;;;;12.85;6.68;;;;;;;23.39;68.65;99836.38;5049415;28;20128;-86
2023/09/24 00:08:19;;;;;;;13.98;6.70;;;;;;;23.10;69.32;99815.84;5049575;28;20037;-86
2023/09/24 00:10:52;;;;;;;11.85;5.60;;;;;;;23.00;69.84;99816.06;5061730;28;20039;-85
2023/09/24 00:13:22;;;;;;;11.70;6.00;;;;;;;23.10;69.22;99820.47;5054683;28;20028;-85
2023/09/24 00:15:49;;;;;;;14.75;6.35;;;;;;;23.35;69.38;99843.53;5053195;28;20151;-85
2023/09/24 00:18:17;;;;;;;10.82;6.43;;;;;;;23.10;69.83;99837.59;5053326;28;20025;-86
2023/09/24 00:20:42;;;;;;;;;;;;;;;23.39;68.64;99839.88;5061192;28;20033;-86
2023/09/24 00:23:08;;;;;;;14.25;6.45;;;;;;;23.08;69.98;99834.38;5056577;28;19931;-85
2023/09/24 00:25:33;;;;;;;10.77;6.25;;;;;;;23.02;69.72;99819.28;5053319;28;20032;-85
2023/09/24 00:27:59;;;;;;;13.35;7.00;;;;;;;23.01;69.96;99806.78;5055345;28;20056;-85
2023/09/24 00:30:24;;;;;;;12.45;6.65;;;;;;;23.04;70.00;99825.22;5056751;28;20107;-85
2023/09/24 00:32:53;;;;;;;13.93;6.72;;;;;;;23.03;69.67;99815.47;5061819;28;20028;-86
2023/09/24 00:35:19;;;;;;;14.45;6.50;;;;;;;22.89;70.25;99831.00;5052801;28;20550;-86
2023/09/24 00:37:44;;;;;;;13.27;5.93;;;;;;;23.10;69.46;99825.94;5052214;28;20031;-85
2023/09/24 00:40:11;;;;;;;13.75;6.57;;;;;;;22.86;70.62;99816.91;5053065;28;20033;-86
2023/09/24 00:42:37;;;;;;;13.48;6.53;;;;;;;23.16;69.48;99833.66;5063630;28;20029;-86
2023/09/24 00:45:10;;;;;;;13.63;7.13;;;;;;;23.11;69.72;99841.94;5052608;28;20021;-86
2023/09/24 00:47:37;;;;;;;11.40;6.68;;;;;;;23.13;69.42;99831.56;5052183;28;20403;-85
2023/09/24 00:50:07;;;;;;;16.02;6.55;;;;;;;23.10;69.32;99831.38;5055522;28;20031;-86
2023/09/24 00:52:33;;;;;;;10.25;6.30;;;;;;;23.04;69.52;99827.94;5053299;28;20060;-85
2023/09/24 00:54:58;;;;;;;12.32;6.38;;;;;;;22.96;69.61;99821.28;5052014;28;20025;-85
2023/09/24 00:57:26;;;;;;;11.93;6.30;;;;;;;23.20;69.07;99837.34;5053981;28;20394;-85
2023/09/24 00:59:52;;;;;;;18.98;6.85;;;;;;;23.15;69.49;99845.66;5055143;28;20029;-86
2023/09/24 01:02:17;;;;;;;12.98;6.63;;;;;;;22.94;70.29;99803.69;5052380;28;20048;-84
2023/09/24 01:04:47;;;;;;;14.65;7.25;;;;;;;23.09;70.61;99836.00;5051790;28;20025;-84
2023/09/24 01:07:13;;;;;;;11.60;6.80;;;;;;;23.22;69.08;99829.69;5052232;28;20588;-86
2023/09/24 01:09:38;;;;;;;16.35;7.05;;;;;;;23.29;70.41;99850.22;5051989;28;20533;-84
2023/09/24 01:12:04;;;;;;;12.75;6.38;;;;;;;23.30;68.66;99836.31;5055572;28;20151;-84
2023/09/24 01:14:29;;;;;;;12.70;6.65;;;;;;;23.04;69.00;99823.31;5052028;28;20123;-84
2023/09/24 01:16:55;;;;;;;13.95;7.32;;;;;;;23.22;69.88;99835.13;5052844;28;20025;-85
2023/09/24 01:19:23;;;;;;;13.00;6.22;;;;;;;23.21;70.06;99828.09;5053607;28;20391;-85
2023/09/24 01:21:50;;;;;;;;;;;;;;;23.01;69.74;99847.59;5061369;28;20178;-84
2023/09/24 01:24:16;;;;;;;10.40;7.05;;;;;;;23.27;69.64;99845.91;5055600;28;19917;-84
2023/09/24 01:26:44;;;;;;;11.98;6.28;;;;;;;23.40;68.49;99852.38;5052090;28;20508;-83
2023/09/24 01:29:16;;;;;;;10.70;5.75;;;;;;;23.05;69.72;99837.72;5055591;28;20055;-85
2023/09/24 01:31:42;;;;;;;11.05;6.57;;;;;;;23.00;70.07;99844.03;5064347;28;20140;-86
2023/09/24 01:34:09;;;;;;;14.35;6.85;;;;;;;23.16;69.55;99852.69;5051143;28;20084;-84
2023/09/24 01:36:35;;;;;;;14.25;6.43;;;;;;;22.96;69.49;99831.38;5051764;28;20120;-85
2023/09/24 01:39:00;;;;;;;9.85;6.50;;;;;;;23.30;70.52;99862.72;5051439;28;20615;-85
2023/09/24 01:41:29;;;;;;;11.18;6.38;;;;;;;22.85;69.86;99837.03;5051131;28;20025;-86
2023/09/24 01:43:54;;;;;;;13.13;7.07;;;;;;;22.89;69.37;99841.88;5052517;28;20088;-85
2023/09/24 01:46:20;;;;;;;11.50;6.57;;;;;;;22.65;71.20;99843.72;5051096;28;20083;-86
2023/09/24 01:48:49;;;;;;;14.52;6.80;;;;;;;22.28;72.63;99836.63;5051244;28;20025;-86
2023/09/24 01:51:15;;;;;;;11.88;7.25;;;;;;;22.71;71.28;99865.38;5051048;28;20028;-84
2023/09/24 01:53:42;;;;;;;11.48;6.38;;;;;;;22.42;71.71;99847.50;5069871;28;20036;-83
2023/09/24 01:56:08;;;;;;;10.43;6.45;;;;;;;22.35;72.60;99847.09;5052840;28;20029;-84
2023/09/24 01:58:35;;;;;;;12.73;6.40;;;;;;;22.35;72.25;99845.19;5050588;28;20571;-84
2023/09/24 02:01:02;;;;;;;12.48;7.28;;;;;;;22.17;72.46;99838.72;5069475;28;20024;-85
2023/09/24 02:03:28;;;;;;;13.25;6.53;;;;;;;22.45;72.70;99861.28;5059278;28;20386;-83
2023/09/24 02:05:53;;;;;;;11.32;6.40;;;;;;;22.37;72.43;99848.41;5052447;28;20550;-84
2023/09/24 02:08:20;;;;;;;10.40;6.47;;;;;;;22.17;72.53;99838.72;5050883;28;20025;-86
2023/09/24 02:10:45;;;;;;;15.05;7.20;;;;;;;21.98;73.92;99833.38;5064325;28;20028;-85
2023/09/24 02:13:12;;;;;;;12.98;6.88;;;;;;;22.07;74.12;99847.88;5056064;28;20036;-87
2023/09/24 02:15:46;;;;;;;10.93;7.03;;;;;;;21.89;74.78;99859.63;5065580;28;20052;-84
2023/09/24 02:18:11;;;;;;;13.00;7.07;;;;;;;21.70;75.31;99864.28;5060094;28;20366;-84
2023/09/24 02:20:41;;;;;;;13.25;7.00;;;;;;;21.45;76.76;99863.63;5050284;28;20036;-84
2023/09/24 02:23:07;;;;;;;13.50;7.10;;;;;;;21.59;75.82;99839.25;5062168;28;20036;-85
2023/09/24 02:25:36;;;;;;;15.00;7.28;;;;;;;21.60;76.39;99849.00;5050975;28;20029;-84
2023/09/24 02:28:03;;;;;;;14.25;8.18;;;;;;;21.48;76.49;99844.03;5050572;28;20029;-87
2023/09/24 02:30:29;;;;;;;10.65;7.10;;;;;;;21.51;76.21;99837.22;5050534;28;20460;-84
2023/09/24 02:32:59;;;;;;;13.80;7.85;;;;;;;21.10;78.26;99822.38;5059377;28;20028;-85
2023/09/24 02:35:25;;;;;;;14.25;7.65;;;;;;;20.84;79.27;99827.34;5052351;28;20047;-84
2023/09/24 02:37:52;;;;;;;11.73;7.82;;;;;;;21.45;77.62;99831.06;5050158;28;20029;-84
2023/09/24 02:40:23;;;;;;;12.15;7.20;;;;;;;21.67;75.62;99827.69;5049821;28;20025;-84
2023/09/24 02:42:52;;;;;;;11.68;7.60;;;;;;;21.91;75.08;99830.25;5051658;28;20108;-88
2023/09/24 02:45:18;;;;;;;12.50;7.15;;;;;;;21.39;77.24;99824.06;5050861;28;20040;-84
2023/09/24 02:47:49;;;;;;;13.02;7.53;;;;;;;21.37;77.54;99843.38;5049896;28;20052;-84
2023/09/24 02:50:15;;;;;;;11.30;6.93;;;;;;;21.71;76.63;99847.72;5050708;28;20027;-84
2023/09/24 02:52:41;;;;;;;14.27;7.57;;;;;;;21.63;76.15;99857.34;5053757;28;20706;-84
2023/09/24 02:55:10;;;;;;;13.07;6.95;;;;;;;21.44;77.65;99838.41;5051733;28;20033;-83
2023/09/24 02:57:37;;;;;;;12.02;7.60;;;;;;;21.26;76.65;99853.56;5050726;28;20029;-83
2023/09/24 03:00:17;;;;;;;16.67;8.43;;;;;;;20.93;77.89;99838.38;5051317;28;20027;-84
2023/09/24 03:02:43;;;;;;;10.55;7.28;;;;;;;20.54;79.63;99793.34;5053269;28;20036;-85
2023/09/24 03:05:11;;;;;;;12.45;8.00;;;;;;;20.87;78.43;99843.84;5051540;28;20238;-85
2023/09/24 03:07:37;;;;;;;11.45;7.75;;;;;;;20.99;79.82;99837.19;5049887;28;20029;-84
2023/09/24 03:10:07;;;;;;;14.43;8.32;;;;;;;21.32;78.78;99856.22;5068322;28;20121;-84
2023/09/24 03:12:34;;;;;;;12.15;8.15;;;;;;;21.56;77.14;99846.06;5053272;28;20028;-84
2023/09/24 03:15:00;;;;;;;15.18;8.05;;;;;;;21.37;76.84;99847.97;5049469;28;20128;-84
2023/09/24 03:17:25;;;;;;;14.93;8.70;;;;;;;21.36;78.12;99862.66;5049788;28;20057;-84
2023/09/24 03:19:51;;;;;;;13.48;8.15;;;;;;;21.76;75.82;99866.63;5050950;28;20102;-84
2023/09/24 03:22:17;;;;;;;14.50;8.38;;;;;;;21.67;75.76;99847.50;5068042;28;20056;-84
2023/09/24 03:24:43;;;;;;;13.98;8.77;;;;;;;21.82;75.96;99873.59;5051206;28;20040;-85
2023/09/24 03:27:09;;;;;;;14.57;7.95;;;;;;;21.70;75.40;99851.56;5067930;28;20028;-84
2023/09/24 03:29:34;;;;;;;12.93;8.18;;;;;;;21.89;74.61;99881.34;5057562;28;20036;-83
2023/09/24 03:31:59;;;;;;;13.07;8.65;;;;;;;21.73;74.43;99875.38;5049606;28;20033;-84
2023/09/24 03:34:25;;;;;;;12.50;9.05;;;;;;;21.61;73.84;99886.69;5061066;28;20063;-84
2023/09/24 03:36:50;;;;;;;16.13;8.52;;;;;;;21.55;74.50;99904.16;5065680;28;20036;-85
2023/09/24 03:39:16;;;;;;;15.80;8.85;;;;;;;21.50;75.80;99893.38;5061535;28;20029;-84
2023/09/24 03:41:41;;;;;;;12.27;8.35;;;;;;;21.51;76.74;99888.75;5059211;28;20028;-84
2023/09/24 03:44:07;;;;;;;14.20;8.82;;;;;;;21.78;74.50;99863.59;5060922;28;20041;-84
2023/09/24 03:46:32;;;;;;;13.73;8.43;;;;;;;21.52;74.85;99868.69;5053847;28;20821;-84
2023/09/24 03:48:57;;;;;;;17.67;9.15;;;;;;;21.42;75.42;99889.44;5053792;28;20029;-84
2023/09/24 03:51:23;;;;;;;13.40;9.07;;;;;;;21.51;74.05;99896.91;5053381;28;20048;-84
2023/09/24 03:53:48;;;;;;;10.70;8.32;;;;;;;21.54;75.62;99902.53;5053430;28;20547;-84
2023/09/24 03:56:14;;;;;;;13.63;8.18;;;;;;;21.81;74.71;99879.31;5055036;28;20033;-84
2023/09/24 03:58:39;;;;;;;12.95;8.40;;;;;;;21.80;74.20;99888.53;5053397;28;20029;-84
2023/09/24 04:01:12;;;;;;;13.25;8.75;;;;;;;21.61;74.32;99892.09;5053982;28;20027;-84
2023/09/24 04:03:38;;;;;;;23.02;9.43;;;;;;;21.27;74.27;99878.81;5057665;28;20510;-84
2023/09/24 04:06:09;;;;;;;16.67;9.38;;;;;;;21.25;74.27;99900.00;5068920;28;20474;-84
2023/09/24 04:08:35;;;;;;;19.58;9.80;;;;;;;21.19;76.78;99917.44;5053389;28;20072;-84
2023/09/24 04:11:00;;;;;;;14.57;8.70;;;;;;;21.52;75.30;99899.31;5053345;28;20036;-84
2023/09/24 04:13:26;;;;;;;14.68;9.02;;;;;;;21.71;74.73;99909.34;5058232;28;20039;-86
2023/09/24 04:15:53;;;;;;;16.42;8.60;;;;;;;21.44;75.06;99906.22;5059959;28;20122;-85
2023/09/24 04:18:19;;;;;;;;;;;;;;;20.72;77.52;99914.53;5053701;28;20450;-84
2023/09/24 04:20:45;;;;;;;16.15;8.98;;;;;;;20.34;80.25;99900.84;5054235;28;19920;-85
2023/09/24 04:23:11;;;;;;;18.67;9.32;;;;;;;20.07;81.32;99877.03;5056015;28;20055;-85
2023/09/24 04:25:38;;;;;;;18.65;9.10;;;;;;;20.71;79.20;99917.53;5064318;28;20044;-84
2023/09/24 04:28:04;;;;;;;13.38;8.02;;;;;;;20.76;79.73;99903.88;5070815;28;20029;-85
2023/09/24 04:30:32;;;;;;;13.30;8.52;;;;;;;20.65;78.93;99893.19;5059574;28;20033;-84
2023/09/24 04:32:58;;;;;;;17.15;9.13;;;;;;;20.90;78.58;99898.56;5053809;28;20049;-85
2023/09/24 04:35:25;;;;;;;15.88;9.05;;;;;;;20.87;77.57;99889.94;5066363;28;20036;-86
2023/09/24 04:37:51;;;;;;;14.40;7.72;;;;;;;20.90;78.71;99904.78;5064258;28;20037;-85
2023/09/24 04:40:18;;;;;;;14.02;8.10;;;;;;;20.98;76.80;99889.78;5069740;28;20035;-86
2023/09/24 04:42:45;;;;;;;15.05;8.13;;;;;;;20.97;78.07;99888.19;5069518;28;20460;-84
2023/09/24 04:45:12;;;;;;;14.75;8.02;;;;;;;21.27;77.42;99917.56;5062704;28;20082;-85
2023/09/24 04:47:39;;;;;;;16.90;9.47;;;;;;;21.38;76.15;99920.13;5061858;28;20098;-84
2023/09/24 04:50:05;;;;;;;14.38;7.90;;;;;;;21.57;75.58;99922.84;5070494;28;20029;-85
2023/09/24 04:52:31;;;;;;;13.43;8.23;;;;;;;21.51;74.97;99913.19;5055911;28;20119;-84
2023/09/24 04:54:56;;;;;;;14.40;7.97;;;;;;;21.32;76.90;99913.97;5057691;28;20556;-85
2023/09/24 04:57:22;;;;;;;12.13;7.93;;;;;;;21.41;76.03;99919.53;5061272;28;20033;-86
2023/09/24 04:59:47;;;;;;;12.68;8.10;;;;;;;21.21;77.03;99932.31;5056521;28;20450;-85
2023/09/24 05:02:13;;;;;;;19.75;8.75;;;;;;;20.98;77.30;99895.22;5068988;28;20580;-84
2023/09/24 05:04:38;;;;;;;21.23;9.25;;;;;;;20.87;78.08;99910.81;5057891;28;20025;-87
2023/09/24 05:07:04;;;;;;;14.75;7.85;;;;;;;20.83;79.44;99910.56;5060936;28;20029;-87
2023/09/24 05:09:30;;;;;;;14.10;8.27;;;;;;;21.07;78.31;99915.94;5053169;28;20410;-86
2023/09/24 05:11:55;;;;;;;19.08;8.45;;;;;;;21.04;78.48;99904.88;5052522;28;20029;-86
2023/09/24 05:14:21;;;;;;;14.15;7.93;;;;;;;20.81;79.51;99910.06;5055134;28;20037;-85
2023/09/24 05:16:47;;;;;;;14.73;8.02;;;;;;;20.86;79.89;99915.44;5063101;28;20128;-85
2023/09/24 05:19:13;;;;;;;16.65;8.75;;;;;;;21.02;79.22;99917.91;5052252;28;20485;-88
2023/09/24 05:21:46;;;;;;;15.40;8.20;;;;;;;20.96;79.48;99924.50;5052686;28;20074;-86
2023/09/24 05:24:11;;;;;;;14.65;8.73;;;;;;;20.87;79.88;99937.91;5052333;28;20033;-85
2023/09/24 05:26:37;;;;;;;13.52;8.57;;;;;;;21.06;79.76;99940.63;5051819;28;20186;-85
2023/09/24 05:29:03;;;;;;;15.55;9.13;;;;;;;21.09;79.57;99940.06;5052127;28;20039;-86
2023/09/24 05:31:28;;;;;;;15.02;9.20;;;;;;;21.20;79.56;99954.28;5052107;28;20025;-87
2023/09/24 05:33:54;;;;;;;13.63;8.82;;;;;;;21.20;79.57;99952.38;5063778;28;20047;-87
2023/09/24 05:36:19;;;;;;;12.85;8.35;;;;;;;21.23;79.75;99957.22;5066549;28;20119;-86
2023/09/24 05:38:44;;;;;;;18.40;10.18;;;;;;;21.23;80.14;99956.44;5052062;28;20147;-86
2023/09/24 05:41:10;;;;;;;14.30;8.60;;;;;;;21.63;78.11;99957.75;5059867;28;20119;-86
2023/09/24 05:43:44;;;;;;;13.05;8.07;;;;;;;21.70;76.69;99953.84;5061202;28;20387;-87
2023/09/24 05:46:14;;;;;;;14.10;8.20;;;;;;;21.96;74.38;99957.75;5063220;28;20091;-87
2023/09/24 05:48:39;;;;;;;10.30;7.35;;;;;;;21.85;75.71;99956.31;5051611;28;20416;-86
2023/09/24 05:51:04;;;;;;;12.07;7.82;;;;;;;21.69;76.50;99952.25;5051946;28;20108;-87
2023/09/24 05:53:30;;;;;;;15.77;8.10;;;;;;;21.75;76.58;99959.22;5059214;28;20024;-86
2023/09/24 05:55:56;;;;;;;11.73;8.05;;;;;;;22.20;73.69;99960.34;5067424;28;20036;-86
2023/09/24 05:58:22;;;;;;;13.90;8.80;;;;;;;21.80;75.57;99953.69;5054570;28;20059;-86
2023/09/24 06:00:50;;;;;;;10.73;7.88;;;;;;;21.86;75.63;99944.34;5051212;28;20033;-87
2023/09/24 06:03:15;;;;;;;15.25;7.97;;;;;;;21.80;76.50;99959.94;5053567;28;20054;-87
2023/09/24 06:05:41;;;;;;;11.02;7.30;;;;;;;22.27;75.24;99973.53;5051682;28;20033;-86
2023/09/24 06:08:07;;;;;;;14.15;7.20;;;;;;;22.32;74.88;99969.97;5050508;28;20028;-87
2023/09/24 06:10:34;;;;;;;15.15;7.53;;;;;;;22.42;73.98;99951.53;5051738;28;20044;-86
2023/09/24 06:13:00;;;;;;;;;;;;;;;22.29;74.43;99981.41;5051582;28;20029;-87
2023/09/24 06:15:25;;;;;;;13.48;7.78;;;;;;;22.25;74.59;99982.03;5068548;28;19909;-87
2023/09/24 06:17:51;;;;;;;16.23;7.60;;;;;;;22.52;73.51;99985.09;5051109;28;20048;-87
2023/09/24 06:20:19;;;;;;;14.73;7.25;;;;;;;22.92;71.66;99975.28;5051505;28;20120;-87
2023/09/24 06:22:52;;;;;;;11.88;7.00;;;;;;;22.87;71.86;99978.13;5050905;28;20033;-88
2023/09/24 06:25:17;;;;;;;11.75;6.47;;;;;;;22.86;72.60;99980.06;5055192;28;20115;-87
2023/09/24 06:27:43;;;;;;;13.15;6.50;;;;;;;22.65;73.04;99976.13;5058960;28;20121;-86
2023/09/24 06:30:11;;;;;;;14.93;6.50;;;;;;;22.74;73.31;99952.56;5031248;28;20124;-86
2023/09/24 06:32:39;;;;;;;11.13;6.60;;;;;;;22.91;73.17;99976.41;5046322;28;20095;-87
2023/09/24 06:35:05;;;;;;;13.10;6.22;;;;;;;23.30;70.43;99982.44;5052970;28;20032;-88
2023/09/24 06:37:31;;;;;;;9.98;6.07;;;;;;;23.70;69.58;99991.59;5054221;28;20033;-87
2023/09/24 06:39:57;;;;;;;10.88;5.90;;;;;;;23.69;68.28;99967.41;5050932;28;20025;-86
2023/09/24 06:42:22;;;;;;;13.15;6.20;;;;;;;23.74;67.85;99945.47;5050825;28;20025;-86
2023/09/24 06:44:49;;;;;;;16.27;6.30;;;;;;;23.61;68.62;99964.28;5050656;28;20044;-87
2023/09/24 06:47:15;;;;;;;12.33;6.23;;;;;;;24.09;66.87;99986.59;5061720;28;20055;-87
2023/09/24 06:49:40;;;;;;;13.18;5.95;;;;;;;24.34;66.13;99987.88;5063821;28;20032;-86
2023/09/24 06:52:06;;;;;;;12.23;5.75;;;;;;;24.15;65.95;99985.34;5062153;28;20116;-87
2023/09/24 06:54:35;;;;;;;14.85;6.03;;;;;;;24.50;65.45;99963.72;5058850;28;20047;-87
2023/09/24 06:57:00;;;;;;;9.93;5.90;;;;;;;24.40;65.40;99992.84;5060424;28;20550;-86
2023/09/24 06:59:26;;;;;;;9.43;5.45;;;;;;;24.22;65.38;99991.16;5050544;28;20112;-88
2023/09/24 07:01:54;;;;;;;12.13;5.93;;;;;;;24.14;65.27;99967.41;5051617;28;20444;-87
2023/09/24 07:04:19;;;;;;;10.43;6.03;;;;;;;24.33;65.11;99976.13;5050158;28;20108;-86
2023/09/24 07:06:45;;;;;;;12.98;6.20;;;;;;;24.41;63.90;99967.19;5054769;28;20577;-86
2023/09/24 07:09:10;;;;;;;13.15;6.82;;;;;;;24.44;64.65;99968.50;5050079;28;20029;-85
2023/09/24 07:11:38;;;;;;;14.75;7.10;;;;;;;24.92;62.97;99972.38;5049419;28;20034;-88
2023/09/24 07:14:05;;;;;;;13.32;6.20;;;;;;;24.99;61.61;99981.72;5049368;28;20433;-84
2023/09/24 07:16:31;;;;;;;15.88;6.70;;;;;;;24.89;61.27;99981.19;5050735;28;20043;-86
2023/09/24 07:18:58;;;;;;;14.00;6.47;;;;;;;24.74;61.45;99955.97;5049757;28;20093;-87
2023/09/24 07:21:26;;;;;;;12.35;6.10;;;;;;;24.59;62.65;99950.97;5050260;28;20135;-87
2023/09/24 07:23:54;;;;;;;13.30;6.32;;;;;;;24.93;61.12;99960.34;5050172;28;20028;-88
2023/09/24 07:26:20;;;;;;;10.90;6.18;;;;;;;25.32;60.99;99972.34;5052127;28;20025;-87
2023/09/24 07:28:46;;;;;;;9.02;5.50;;;;;;;25.46;59.20;99983.91;5061516;28;20033;-88
2023/09/24 07:31:21;;;;;;;15.07;6.07;;;;;;;25.67;59.34;99986.78;5050573;28;20032;-87
2023/09/24 07:33:46;;;;;;;13.23;6.32;;;;;;;25.43;60.01;99984.53;5050218;28;20025;-87
2023/09/24 07:36:13;;;;;;;10.27;5.75;;;;;;;25.69;57.95;99959.16;5054109;28;20226;-87
2023/09/24 07:38:40;;;;;;;11.27;5.78;;;;;;;25.88;56.38;99961.53;5052048;28;20505;-87
2023/09/24 07:41:07;;;;;;;9.50;5.55;;;;;;;26.03;55.54;99959.13;5049994;28;20071;-87
2023/09/24 07:43:34;;;;;;;11.55;5.63;;;;;;;26.13;54.62;99951.69;5050438;28;20837;-87
2023/09/24 07:46:00;;;;;;;38.33;7.57;;;;;;;26.63;53.20;99954.59;5051619;28;20033;-87
2023/09/24 07:48:25;;;;;;;11.52;5.40;;;;;;;26.45;53.20;99948.34;5062338;28;20086;-87
2023/09/24 07:50:57;;;;;;;17.85;6.00;;;;;;;26.79;51.65;99954.81;5049716;28;20486;-87
2023/09/24 07:53:23;;;;;;;14.05;5.95;;;;;;;27.11;51.13;99971.69;5049983;28;20056;-87
2023/09/24 07:56:03;;;;;;;11.98;5.95;;;;;;;27.20;48.54;99972.44;5053322;28;20051;-88
2023/09/24 07:58:32;;;;;;;11.68;5.88;;;;;;;27.53;48.83;99979.16;5049947;28;20171;-84
2023/09/24 08:01:15;;;;;;;13.60;6.05;;;;;;;27.89;48.24;99970.31;5049671;28;20094;-86
2023/09/24 08:03:44;;;;;;;13.88;5.55;;;;;;;27.87;47.95;99972.59;5049547;28;20490;-85
2023/09/24 08:06:10;;;;;;;11.63;5.60;;;;;;;27.44;48.96;99968.25;5051853;28;20056;-88
2023/09/24 08:08:37;;;;;;;13.70;6.60;;;;;;;27.32;48.98;99958.06;5061234;28;20021;-85
2023/09/24 08:11:02;;;;;;;12.20;5.97;;;;;;;27.45;48.63;99964.38;5049746;28;20041;-87
2023/09/24 08:13:29;;;;;;;14.23;5.28;;;;;;;27.21;49.97;99957.59;5050179;28;20031;-87
2023/09/24 08:15:57;;;;;;;13.77;6.30;;;;;;;27.31;49.00;99966.59;5058973;28;20046;-87
2023/09/24 08:18:24;;;;;;;9.10;5.70;;;;;;;27.79;48.77;99970.72;5058517;28;20060;-85
2023/09/24 08:20:50;;;;;;;13.30;5.70;;;;;;;27.07;48.59;99951.59;5050601;28;20060;-87
2023/09/24 08:23:18;;;;;;;13.30;6.03;;;;;;;27.25;49.16;99949.56;5049539;28;20079;-86
2023/09/24 08:25:43;;;;;;;15.82;5.80;;;;;;;27.55;48.35;99961.25;5049599;28;20037;-87
2023/09/24 08:28:10;;;;;;;13.27;5.40;;;;;;;27.78;46.95;99952.66;5049612;28;20406;-85
2023/09/24 08:30:36;;;;;;;12.43;5.72;;;;;;;27.83;47.52;99955.19;5050688;28;20037;-85
2023/09/24 08:33:02;;;;;;;11.45;5.63;;;;;;;28.00;46.86;99933.09;5053194;28;20044;-83
2023/09/24 08:35:28;;;;;;;10.70;5.03;;;;;;;28.23;45.28;99949.91;5055624;28;20029;-85
2023/09/24 08:37:54;;;;;;;13.48;5.60;;;;;;;28.35;43.69;99938.19;5065825;28;20035;-86
2023/09/24 08:40:19;;;;;;;12.05;5.30;;;;;;;28.60;44.11;99949.97;5060739;28;20421;-87
2023/09/24 08:42:49;;;;;;;11.13;5.22;;;;;;;28.71;43.85;99939.34;5052653;28;20021;-86
2023/09/24 08:45:18;;;;;;;17.92;6.47;;;;;;;28.70;42.84;99937.75;5052792;28;20409;-87
2023/09/24 08:47:44;;;;;;;10.88;5.50;;;;;;;28.65;44.41;99940.72;5053815;28;20084;-86
2023/09/24 08:50:10;;;;;;;15.40;6.17;;;;;;;28.59;42.68;99922.91;5063096;28;20032;-87
2023/09/24 08:52:41;;;;;;;16.38;5.90;;;;;;;28.33;43.22;99932.22;5052792;28;20033;-85
2023/09/24 08:55:10;;;;;;;16.17;5.78;;;;;;;28.63;42.68;99945.75;5052705;28;20120;-87
2023/09/24 08:57:43;;;;;;;12.05;5.28;;;;;;;28.87;41.75;99933.16;5052859;28;20040;-85
2023/09/24 09:00:11;;;;;;;12.25;5.47;;;;;;;28.79;42.43;99935.69;5041936;28;20060;-86
2023/09/24 09:02:37;;;;;;;;;;;;;;;29.07;42.50;99940.44;5053002;28;20391;-86
2023/09/24 09:05:11;;;;;;;14.10;6.10;;;;;;;29.31;41.44;99933.31;5052366;28;19965;-86
2023/09/24 09:07:37;;;;;;;15.98;5.90;;;;;;;29.61;40.50;99937.31;5055023;28;20583;-84
2023/09/24 09:10:03;;;;;;;12.80;5.07;;;;;;;29.77;40.26;99944.81;5060745;28;20063;-86
2023/09/24 09:12:30;;;;;;;12.20;5.45;;;;;;;29.68;39.88;99913.94;5052825;28;20032;-85
2023/09/24 09:14:56;;;;;;;11.95;5.80;;;;;;;29.71;39.11;99883.00;5053334;28;20036;-86
2023/09/24 09:17:22;;;;;;;10.98;5.45;;;;;;;29.79;39.37;99926.03;5052042;28;20029;-86
2023/09/24 09:19:57;;;;;;;12.95;5.55;;;;;;;29.49;40.13;99911.84;5063805;28;20021;-86
2023/09/24 09:22:25;;;;;;;15.18;5.22;;;;;;;29.36;39.41;99894.59;5051693;28;20117;-86
2023/09/24 09:25:04;;;;;;;12.63;5.20;;;;;;;29.38;39.95;99889.56;5052910;28;20614;-85
2023/09/24 09:27:43;;;;;;;16.15;5.47;;;;;;;29.36;39.08;99897.34;5065357;28;20098;-85
2023/09/24 09:30:19;;;;;;;15.85;5.60;;;;;;;29.46;39.07;99891.34;5059722;28;20481;-84
2023/09/24 09:32:46;;;;;;;15.18;5.50;;;;;;;29.61;39.12;99887.06;5052863;28;20025;-85
2023/09/24 09:35:14;;;;;;;11.60;4.72;;;;;;;29.72;37.83;99899.16;5051718;28;20162;-85
2023/09/24 09:37:42;;;;;;;;;;;;;;;29.90;37.78;99909.84;5051896;28;20036;-86
2023/09/24 09:40:09;;;;;;;14.77;5.95;;;;;;;29.45;38.48;99889.78;5051423;28;20010;-88
2023/09/24 09:42:37;;;;;;;15.82;5.95;;;;;;;29.50;38.11;99888.72;5053343;28;20017;-86
2023/09/24 09:45:10;;;;;;;10.73;5.57;;;;;;;29.79;38.21;99893.03;5051129;28;20041;-87
2023/09/24 09:47:58;;;;;;;18.65;5.47;;;;;;;29.81;38.73;99886.06;5050822;28;20060;-85
2023/09/24 09:50:25;;;;;;;14.32;5.38;;;;;;;30.19;38.50;99900.34;5063467;28;20025;-86
2023/09/24 09:52:54;;;;;;;12.50;5.53;;;;;;;30.30;37.71;99890.44;5051175;28;20036;-85
2023/09/24 09:55:20;;;;;;;16.38;5.45;;;;;;;30.62;37.45;99871.13;5050707;28;20033;-87
2023/09/24 09:57:47;;;;;;;13.38;5.40;;;;;;;30.98;35.72;99891.19;5052420;28;20025;-86
2023/09/24 10:00:16;;;;;;;14.27;5.47;;;;;;;31.40;35.42;99885.75;5054972;28;20029;-86
2023/09/24 10:02:43;;;;;;;20.27;5.68;;;;;;;31.66;34.92;99880.75;5052303;28;20468;-85
2023/09/24 10:05:12;;;;;;;13.98;4.90;;;;;;;31.49;34.77;99868.22;5052709;28;20108;-83
2023/09/24 10:07:38;;;;;;;15.90;5.40;;;;;;;31.78;33.63;99864.03;5054187;28;20569;-84
2023/09/24 10:10:34;;;;;;;12.20;5.43;;;;;;;32.47;32.81;99886.06;5052350;28;20028;-89
2023/09/24 10:12:59;;;;;;;17.40;5.38;;;;;;;31.83;32.95;99860.94;5047460;28;20039;-86
2023/09/24 10:15:27;;;;;;;15.18;5.18;;;;;;;31.39;33.94;99875.91;5050861;28;20021;-86
2023/09/24 10:18:25;;;;;;;13.38;5.00;;;;;;;31.38;34.14;99879.78;5050418;28;20033;-86
2023/09/24 10:20:50;;;;;;;15.23;4.60;;;;;;;31.50;33.69;99873.38;5016730;28;20128;-84
2023/09/24 10:23:31;;;;;;;19.58;5.00;;;;;;;31.51;33.92;99877.72;5049856;28;20116;-84
2023/09/24 10:26:00;;;;;;;11.63;4.80;;;;;;;31.76;33.65;99869.91;5063955;28;20035;-83
2023/09/24 10:28:44;;;;;;;12.07;4.57;;;;;;;32.05;33.05;99864.91;5057595;28;20501;-84
2023/09/24 10:31:11;;;;;;;13.23;5.32;;;;;;;32.39;32.18;99851.25;5050230;28;20028;-85
2023/09/24 10:33:56;;;;;;;;;;;;;;;32.92;31.35;99864.22;5051196;28;20033;-87
2023/09/24 10:36:30;;;;;;;15.30;5.22;;;;;;;33.28;31.81;99846.09;5050440;28;19963;-86
2023/09/24 10:39:07;;;;;;;23.95;6.53;;;;;;;33.86;30.23;99864.09;5049919;28;20032;-85
2023/09/24 10:41:34;;;;;;;15.80;5.05;;;;;;;33.60;29.74;99853.94;5061777;28;20588;-84
2023/09/24 10:44:22;;;;;;;15.40;4.87;;;;;;;33.54;30.04;99859.00;5049989;28;20029;-84
2023/09/24 10:46:47;;;;;;;17.27;5.57;;;;;;;33.44;31.42;99832.06;5049868;28;20055;-84
2023/09/24 10:49:21;;;;;;;15.20;5.43;;;;;;;33.52;30.74;99855.03;5050079;28;20393;-85
2023/09/24 10:51:49;;;;;;;15.40;4.68;;;;;;;33.46;29.49;99838.00;5063452;28;20029;-85
2023/09/24 10:54:16;;;;;;;12.95;4.22;;;;;;;34.02;29.19;99849.97;5030248;28;20029;-85
2023/09/24 10:56:47;;;;;;;17.42;5.15;;;;;;;33.81;29.51;99823.72;5044761;28;20120;-84
2023/09/24 10:59:16;;;;;;;13.18;4.57;;;;;;;33.37;29.88;99832.78;5049834;28;20029;-86
2023/09/24 11:01:42;;;;;;;12.18;3.95;;;;;;;33.73;28.94;99843.41;5051043;28;20397;-85
2023/09/24 11:04:09;;;;;;;14.85;4.90;;;;;;;33.83;29.03;99832.44;5049508;28;20549;-88
2023/09/24 11:06:37;;;;;;;16.65;5.85;;;;;;;34.48;28.58;99826.59;5049549;28;20040;-85
2023/09/24 11:09:17;;;;;;;22.63;5.47;;;;;;;34.51;28.19;99823.03;5050819;28;20043;-85
2023/09/24 11:11:42;;;;;;;17.85;4.75;;;;;;;34.30;27.39;99816.19;5049149;28;20045;-84
2023/09/24 11:14:22;;;;;;;22.02;5.13;;;;;;;34.24;27.88;99817.75;5050578;28;20033;-86
2023/09/24 11:16:53;;;;;;;18.52;5.00;;;;;;;34.48;28.06;99794.16;5063037;28;20033;-85
2023/09/24 11:19:44;;;;;;;15.10;4.82;;;;;;;34.77;27.56;99811.72;5056956;28;20040;-87
2023/09/24 11:22:20;;;;;;;18.48;5.03;;;;;;;34.58;27.25;99809.25;5061167;28;20025;-89
2023/09/24 11:24:49;;;;;;;14.02;4.38;;;;;;;34.11;28.49;99805.38;5049547;28;20390;-85
2023/09/24 11:27:14;;;;;;;18.08;4.45;;;;;;;34.64;26.96;99818.78;5049764;28;20495;-84
2023/09/24 11:29:58;;;;;;;13.07;4.70;;;;;;;35.00;27.81;99796.75;5049562;28;20113;-85